Smith Valley, Nevada Weather observations

Data are for 10 minute period ending at time listed.
 Day   Time   Solar   Ave.   Ave.  Ave.  Vector  Max.   Baro.   Total    
  of    of     Rad.   Air    Rel.  Wind   Wind   Wind  Press.  Precip.   
Year   Day            Temp.  Hum.  Speed  Dir.   Gust                    
2026   (PST)  Kw/m2    F      %     mph   deg.    mph    mb.     in.     
-------------------------------------------------------------------------
 243   13:00   0.99   84.2    14    5.4   322    10.4   850.6    0.00 
 243   13:10   0.99   85.0    14    4.2    89     8.2   850.5    0.00 
 243   13:20   0.97   85.2    13    3.5    58     6.0   850.4    0.00 
 243   13:30   0.96   86.5    14    3.4    83     7.8   850.3    0.00 
 243   13:40   0.94   86.2    13    3.3     1    10.2   850.1    0.00 
 243   13:50   0.92   85.9    13    5.6   326     8.9   850.1    0.00 
 243   14:00   0.90   85.9    13    6.0   317    10.0   849.9    0.00 
 243   14:10   0.87   86.3    13    5.2   304    10.0   849.8    0.00 
 243   14:20   0.84   86.4    14    7.1   292    13.3   849.7    0.00 
 243   14:30   0.83   86.2    14    4.8   303     9.2   849.5    0.00 
 243   14:40   0.80   86.1    14    5.7   266    12.5   849.4    0.00 
 243   14:50   0.76   86.6    14    4.8   313    13.9   849.2    0.00 
 243   15:00   0.71   86.5    15    7.4   298    12.2   849.1    0.00 
 243   15:10   0.69   86.7    15    6.9   281    15.1   849.1    0.00 
 243   15:20   0.65   86.5    16    8.7   303    13.8   849.0    0.00 
 243   15:30   0.62   85.9    17   11.6   304    17.2   849.0    0.00 
 243   15:40   0.59   85.8    17    9.4   294    13.8   849.0    0.00 
 243   15:50   0.55   85.9    17   10.9   279    17.4   848.9    0.00 
 243   16:00   0.51   85.6    17   10.7   274    16.3   848.9    0.00 
 243   16:10   0.48   85.1    18   10.9   287    17.6   848.9    0.00 
 243   16:20   0.44   84.3    19   12.5   288    18.8   848.9    0.00 
 243   16:30   0.40   82.9    22   11.4   302    19.6   848.9    0.00 
 243   16:40   0.36   81.9    23   13.1   292    18.9   848.9    0.00 
 243   16:50   0.32   81.4    24   12.8   291    18.5   848.9    0.00 
 243   17:00   0.27   81.0    24   11.9   285    18.4   848.9    0.00 
 243   17:10   0.24   81.1    24    8.8   276    15.7   848.9    0.00 
 243   17:20   0.21   81.4    24   10.4   251    15.8   848.8    0.00 
 243   17:30   0.19   80.7    24   10.7   252    15.5   848.7    0.00 
 243   17:40   0.15   80.3    24   10.5   254    14.9   848.7    0.00 
 243   17:50   0.09   79.4    25   10.3   258    14.9   848.6    0.00 
 243   18:00   0.04   78.1    27    8.5   272    13.6   848.7    0.00 
 243   18:10   0.03   77.2    27    8.9   273    13.6   848.7    0.00 
 243   18:20   0.01   76.6    28    6.3   290    11.1   848.7    0.00 
 243   18:30   0.01   75.4    30    6.6   303    12.7   848.9    0.00 
 243   18:40   0.00   75.2    30    6.4   301    11.0   848.9    0.00 
 243   18:50   0.00   74.9    30    6.1   286    11.3   848.8    0.00 
 243   19:00   0.00   74.4    30    7.2   267    11.8   848.9    0.00 
 243   19:10   0.00   75.3    27    8.6   274    15.4   848.9    0.00 
 243   19:20   0.00   75.5    27    8.9   270    15.0   849.0    0.00 
 243   19:30   0.00   74.1    28    8.3   273    13.0   849.1    0.00 
 243   19:40   0.00   73.8    29    6.2   275    11.2   849.1    0.00 
 243   19:50   0.00   72.6    30    3.6   217     5.5   849.0    0.00 
 243   20:00   0.00   72.1    30    3.1   189     5.5   849.0    0.00 
 243   20:10   0.00   71.3    31    1.6   205     5.6   849.1    0.00 
 243   20:20   0.00   69.7    34    1.6   139     3.2   849.1    0.00 
 243   20:30   0.00   68.1    39    2.5   114     4.4   849.1    0.00 
 243   20:40   0.00   65.9    41    2.6    26     5.4   849.1    0.00 
 243   20:50   0.00   65.3    40    3.2     5     4.9   849.2    0.00 
 243   21:00   0.00   63.1    45    2.7    73     4.4   849.2    0.00 
 243   21:10   0.00   62.6    44    3.3    86     5.0   849.2    0.00 
 243   21:20   0.00   61.5    49    2.7   109     4.1   849.3    0.00 
 243   21:30   0.00   63.3    42    2.8    99     4.7   849.4    0.00 
 243   21:40   0.00   62.5    47    5.2    71     7.0   849.5    0.00 
 243   21:50   0.00   64.2    40    1.8    80     5.0   849.6    0.00 
 243   22:00   0.00   64.3    40    2.6    79     4.6   849.5    0.00 
 243   22:10   0.00   64.2    40    2.9    52     4.9   849.4    0.00 
 243   22:20   0.00   63.7    39    2.9   269     4.5   849.5    0.00 
 243   22:30   0.00   62.2    46    3.7   295     5.7   849.5    0.00 
 243   22:40   0.00   61.2    48    3.2   264     4.6   849.5    0.00 
 243   22:50   0.00   63.1    41    4.2   290     5.7   849.5    0.00 
 243   23:00   0.00   64.4    37    2.5   319     4.8   849.6    0.00 
 243   23:10   0.00   64.1    42    2.4    58     3.3   849.5    0.00 
 243   23:20   0.00   61.2    49    3.7   132     5.2   849.6    0.00 
 243   23:30   0.00   62.6    43    3.2   126     6.0   849.5    0.00 
 243   23:40   0.00   62.7    43    3.0   115     5.1   849.6    0.00 
 243   23:50   0.00   61.7    46    2.9    78     4.4   849.6    0.00 
 244    0:00   0.00   60.8    47    0.9    54     2.5   849.6    0.00 
 244    0:10   0.00   60.2    46    2.8   335     4.1   849.6    0.00 
 244    0:20   0.00   58.4    51    1.6    66     4.0   849.6    0.00 
 244    0:30   0.00   58.0    49    1.0   345     2.2   849.6    0.00 
 244    0:40   0.00   57.0    53    2.1   209     5.0   849.7    0.00 
 244    0:50   0.00   57.7    51    1.1   197     4.4   849.8    0.00 
 244    1:00   0.00   56.9    53    2.4    84     4.9   849.7    0.00 
 244    1:10   0.00   57.5    50    3.6   334     5.9   849.7    0.00 
 244    1:20   0.00   58.6    46    2.6   140     5.0   849.7    0.00 
 244    1:30   0.00   60.4    44    2.8   130     3.5   849.7    0.00 
 244    1:40   0.00   58.4    46    2.8     1     4.6   849.7    0.00 
 244    1:50   0.00   58.4    47    2.3    99     4.6   849.8    0.00 
 244    2:00   0.00   56.8    50    3.1    86     6.0   849.8    0.00 
 244    2:10   0.00   58.4    42    2.8   100     4.6   849.8    0.00 
 244    2:20   0.00   60.6    38    2.3    97     5.3   849.8    0.00 
 244    2:30   0.00   59.4    40    1.7    76     4.1   849.9    0.00 
 244    2:40   0.00   57.4    48    4.8   113     6.2   849.8    0.00 
 244    2:50   0.00   55.8    51    4.5   114     5.9   849.8    0.00 
 244    3:00   0.00   56.2    47    4.8   112     6.8   849.8    0.00 
 244    3:10   0.00   57.0    44    5.3   105     7.7   849.8    0.00 
 244    3:20   0.00   57.0    42    4.2   119     7.4   849.8    0.00 
 244    3:30   0.00   55.1    47    2.2   257     5.0   849.9    0.00 
 244    3:40   0.00   55.6    44    2.6   282     4.1   850.0    0.00 
 244    3:50   0.00   54.4    50    1.3    51     2.5   850.1    0.00 
 244    4:00   0.00   54.3    47    2.6    78     4.3   850.1    0.00 
 244    4:10   0.00   52.4    50    1.6   211     4.7   850.2    0.00 
 244    4:20   0.00   52.7    51    2.2    72     4.8   850.3    0.00 
 244    4:30   0.00   50.8    54    3.1   141     4.8   850.4    0.00 
 244    4:40   0.00   51.2    46    1.8   174     4.3   850.5    0.00 
 244    4:50   0.00   52.6    45    1.5   225     4.0   850.6    0.00 
 244    5:00   0.00   50.5    53    1.3   128     2.7   850.6    0.00 
 244    5:10   0.00   50.5    49    3.2   114     5.3   850.6    0.00 
 244    5:20   0.00   50.1    50    2.9    70     4.0   850.7    0.00 
 244    5:30   0.00   47.9    57    3.3    96     6.5   850.7    0.00 
 244    5:40   0.01   47.2    58    3.1   101     5.1   850.8    0.00 
 244    5:50   0.02   47.7    55    1.5    84     2.3   850.8    0.00 
 244    6:00   0.08   47.2    57    2.1    37     3.3   850.8    0.00 
 244    6:10   0.12   48.7    54    4.3   311     6.0   850.9    0.00 
 244    6:20   0.15   52.4    43    2.8   338     4.9   851.0    0.00 
 244    6:30   0.19   54.5    44    2.7   272     5.2   851.2    0.00 
 244    6:40   0.22   56.1    40    1.2   271     3.6   851.3    0.00 
 244    6:50   0.25   58.9    36    1.8   301     3.3   851.3    0.00 
 244    7:00   0.29   60.9    35    1.1    17     3.4   851.2    0.00 
 244    7:10   0.32   63.0    32    1.7   246     3.6   851.2    0.00 
 244    7:20   0.36   64.0    35    1.4   106     3.8   851.1    0.00 
 244    7:30   0.40   64.8    35    3.8    87     7.1   850.9    0.00 
 244    7:40   0.43   65.6    32    4.1   127     7.0   850.9    0.00 
 244    7:50   0.47   68.6    24    5.9   175     9.7   850.8    0.00 
 244    8:00   0.51   69.8    23    6.9   178    11.3   850.7    0.00 
 244    8:10   0.55   70.2    22    6.1   177    10.9   850.7    0.00 
 244    8:20   0.58   70.8    21    8.7   182    18.0   850.8    0.00 
 244    8:30   0.62   72.3    17   11.1   209    17.6   850.7    0.00 
 244    8:40   0.65   72.6    18   10.4   192    15.3   850.8    0.00 
 244    8:50   0.68   73.0    17   11.0   209    16.4   850.8    0.00 
 244    9:00   0.71   73.9    17    8.4   187    15.4   850.8    0.00 
 244    9:10   0.75   73.9    16    9.5   192    16.3   850.8    0.00 
 244    9:20   0.78   74.2    16    8.6   194    14.3   850.9    0.00 
 244    9:30   0.81   74.4    16    6.9   189    13.3   850.8    0.00 
 244    9:40   0.83   74.9    17    5.2   143    11.5   850.9    0.00 
 244    9:50   0.86   74.8    17    6.0   141    14.2   851.0    0.00 
 244   10:00   0.89   75.2    18    6.8   126    13.2   851.0    0.00 
 244   10:10   0.91   74.9    16    5.2   123    10.5   851.0    0.00 
 244   10:20   0.93   75.4    15    3.0   266     6.4   851.0    0.00 
 244   10:30   0.96   76.1    15    4.2   180     9.0   851.0    0.00 
 244   10:40   0.97   76.7    16    5.5   139    13.7   850.9    0.00 
 244   10:50   1.00   76.7    14    4.1   152     9.8   850.9    0.00 
 244   11:00   1.00   78.3    12    5.7   230    11.1   850.8    0.00 
 244   11:10   1.06   78.2    14    3.3   155     7.8   850.8    0.00 
 244   11:20   1.07   79.1    11    6.5   212    17.0   850.7    0.00 
 244   11:30   0.99   79.0    10    9.2   194    18.2   850.8    0.00 
 244   11:40   0.94   79.6    10   10.2   201    17.2   850.7    0.00 
 244   11:50   1.02   79.4    10   10.4   197    20.3   850.6    0.00 
 244   12:00   1.06   80.2    11   11.4   217    15.6   850.4    0.00 
 244   12:10   1.12   80.5    11    8.6   224    15.7   850.3    0.00 
 244   12:20   1.08   79.9    11    8.0   240    15.0   850.2    0.00 
 244   12:30   0.95   80.0    11    9.3   202    15.8   850.0    0.00 
 244   12:40   0.86   80.6    11    9.6   215    17.7   849.9    0.00 
 244   12:50   0.92   80.6    11   10.5   215    15.8   849.8    0.00 

Return to Smith Valley graphs page.


Western Regional Climate Center,wrcc@dri.edu